sensor_id;sensor_type;location;lat;lon;timestamp;pressure;altitude;pressure_sealevel;temperature;humidity
44872;BME280;30602;51.060;17.226;2023-06-24T00:00:53;101746.57;;;19.31;100.00
44872;BME280;30602;51.060;17.226;2023-06-24T00:13:53;101756.36;;;19.39;100.00
44872;BME280;30602;51.060;17.226;2023-06-24T00:18:36;101747.92;;;19.37;100.00
44872;BME280;30602;51.060;17.226;2023-06-24T00:22:03;101752.28;;;19.24;100.00
44872;BME280;30602;51.060;17.226;2023-06-24T00:25:58;101755.64;;;19.26;100.00
44872;BME280;30602;51.060;17.226;2023-06-24T00:29:54;101759.80;;;19.19;100.00
44872;BME280;30602;51.060;17.226;2023-06-24T00:33:38;101758.27;;;19.27;100.00
44872;BME280;30602;51.060;17.226;2023-06-24T00:37:24;101761.12;;;19.19;100.00
44872;BME280;30602;51.060;17.226;2023-06-24T00:41:06;101756.67;;;19.09;100.00
44872;BME280;30602;51.060;17.226;2023-06-24T00:44:44;101759.78;;;19.06;100.00
44872;BME280;30602;51.060;17.226;2023-06-24T00:48:28;101770.43;;;18.99;100.00
44872;BME280;30602;51.060;17.226;2023-06-24T00:52:56;101778.26;;;18.98;100.00
44872;BME280;30602;51.060;17.226;2023-06-24T00:56:54;101783.51;;;18.92;100.00
44872;BME280;30602;51.060;17.226;2023-06-24T01:00:46;101793.49;;;18.81;100.00
44872;BME280;30602;51.060;17.226;2023-06-24T01:04:21;101789.81;;;18.73;100.00
44872;BME280;30602;51.060;17.226;2023-06-24T01:07:57;101791.91;;;18.79;100.00
44872;BME280;30602;51.060;17.226;2023-06-24T01:11:41;101798.70;;;18.80;100.00
44872;BME280;30602;51.060;17.226;2023-06-24T01:15:47;101800.34;;;18.76;100.00
44872;BME280;30602;51.060;17.226;2023-06-24T01:39:22;101853.01;;;18.61;100.00
44872;BME280;30602;51.060;17.226;2023-06-24T01:43:01;101849.99;;;18.50;100.00
44872;BME280;30602;51.060;17.226;2023-06-24T01:46:26;101851.41;;;18.51;100.00
44872;BME280;30602;51.060;17.226;2023-06-24T01:49:53;101856.77;;;18.45;100.00
44872;BME280;30602;51.060;17.226;2023-06-24T01:53:36;101848.57;;;18.41;100.00
44872;BME280;30602;51.060;17.226;2023-06-24T01:57:37;101854.33;;;18.38;100.00
44872;BME280;30602;51.060;17.226;2023-06-24T02:01:23;101859.71;;;18.35;100.00
44872;BME280;30602;51.060;17.226;2023-06-24T02:05:42;101866.56;;;18.23;100.00
44872;BME280;30602;51.060;17.226;2023-06-24T02:09:48;101871.76;;;18.17;100.00
44872;BME280;30602;51.060;17.226;2023-06-24T02:13:16;101872.45;;;18.10;100.00
44872;BME280;30602;51.060;17.226;2023-06-24T02:17:35;101882.10;;;17.96;100.00
44872;BME280;30602;51.060;17.226;2023-06-24T02:21:01;101881.69;;;17.72;100.00
44872;BME280;30602;51.060;17.226;2023-06-24T02:25:03;101885.09;;;17.71;100.00
44872;BME280;30602;51.060;17.226;2023-06-24T02:28:58;101883.81;;;17.60;100.00
44872;BME280;30602;51.060;17.226;2023-06-24T02:33:06;101887.98;;;17.56;100.00
44872;BME280;30602;51.060;17.226;2023-06-24T02:37:01;101884.85;;;17.44;100.00
44872;BME280;30602;51.060;17.226;2023-06-24T02:40:57;101894.09;;;17.29;100.00
44872;BME280;30602;51.060;17.226;2023-06-24T02:44:50;101893.43;;;17.13;100.00
44872;BME280;30602;51.060;17.226;2023-06-24T02:48:22;101909.45;;;17.00;100.00
44872;BME280;30602;51.060;17.226;2023-06-24T02:51:43;101910.29;;;16.84;100.00
44872;BME280;30602;51.060;17.226;2023-06-24T02:55:06;101918.23;;;16.86;100.00
44872;BME280;30602;51.060;17.226;2023-06-24T02:58:31;101926.04;;;16.73;100.00
44872;BME280;30602;51.060;17.226;2023-06-24T03:01:52;101931.11;;;16.71;100.00
44872;BME280;30602;51.060;17.226;2023-06-24T03:05:37;101941.50;;;16.70;100.00
44872;BME280;30602;51.060;17.226;2023-06-24T03:09:00;101944.03;;;16.62;100.00
44872;BME280;30602;51.060;17.226;2023-06-24T03:13:15;101951.30;;;16.44;100.00
44872;BME280;30602;51.060;17.226;2023-06-24T03:16:56;101963.48;;;16.31;100.00
44872;BME280;30602;51.060;17.226;2023-06-24T03:20:35;101968.16;;;16.13;100.00
44872;BME280;30602;51.060;17.226;2023-06-24T03:24:16;101978.23;;;16.17;100.00
44872;BME280;30602;51.060;17.226;2023-06-24T03:28:08;101987.93;;;16.10;100.00
44872;BME280;30602;51.060;17.226;2023-06-24T03:32:21;102003.35;;;15.94;100.00
44872;BME280;30602;51.060;17.226;2023-06-24T03:35:44;102008.43;;;15.95;100.00
44872;BME280;30602;51.060;17.226;2023-06-24T03:39:26;102010.73;;;15.90;100.00
44872;BME280;30602;51.060;17.226;2023-06-24T03:43:07;102017.95;;;15.97;100.00
44872;BME280;30602;51.060;17.226;2023-06-24T03:46:31;102024.76;;;15.95;100.00
44872;BME280;30602;51.060;17.226;2023-06-24T03:50:24;102019.64;;;15.85;100.00
44872;BME280;30602;51.060;17.226;2023-06-24T03:54:49;102027.31;;;15.73;100.00
44872;BME280;30602;51.060;17.226;2023-06-24T03:59:04;102027.34;;;15.72;100.00
44872;BME280;30602;51.060;17.226;2023-06-24T04:03:13;102030.66;;;15.80;100.00
44872;BME280;30602;51.060;17.226;2023-06-24T04:07:39;102029.35;;;15.87;100.00
44872;BME280;30602;51.060;17.226;2023-06-24T04:11:25;102032.98;;;15.80;100.00
44872;BME280;30602;51.060;17.226;2023-06-24T04:15:42;102037.27;;;15.87;100.00
44872;BME280;30602;51.060;17.226;2023-06-24T04:19:38;102038.14;;;15.85;100.00
44872;BME280;30602;51.060;17.226;2023-06-24T04:23:20;102047.15;;;15.91;100.00
44872;BME280;30602;51.060;17.226;2023-06-24T04:27:08;102048.55;;;15.79;100.00
44872;BME280;30602;51.060;17.226;2023-06-24T04:30:29;102047.21;;;15.83;100.00
44872;BME280;30602;51.060;17.226;2023-06-24T04:34:22;102055.81;;;15.76;100.00
44872;BME280;30602;51.060;17.226;2023-06-24T04:38:08;102059.46;;;15.71;100.00
44872;BME280;30602;51.060;17.226;2023-06-24T04:41:43;102063.52;;;15.72;100.00
44872;BME280;30602;51.060;17.226;2023-06-24T04:45:17;102074.98;;;15.75;100.00
44872;BME280;30602;51.060;17.226;2023-06-24T04:48:38;102077.46;;;15.74;100.00
44872;BME280;30602;51.060;17.226;2023-06-24T04:52:03;102079.52;;;15.71;100.00
44872;BME280;30602;51.060;17.226;2023-06-24T04:55:58;102088.26;;;15.72;100.00
44872;BME280;30602;51.060;17.226;2023-06-24T04:59:38;102093.32;;;15.78;100.00
44872;BME280;30602;51.060;17.226;2023-06-24T05:03:20;102094.81;;;15.85;100.00
44872;BME280;30602;51.060;17.226;2023-06-24T05:07:19;102102.94;;;15.86;100.00
44872;BME280;30602;51.060;17.226;2023-06-24T05:11:35;102114.74;;;15.85;100.00
44872;BME280;30602;51.060;17.226;2023-06-24T05:15:41;102118.77;;;15.79;100.00
44872;BME280;30602;51.060;17.226;2023-06-24T05:19:24;102131.59;;;15.75;100.00
44872;BME280;30602;51.060;17.226;2023-06-24T05:22:46;102134.86;;;15.81;100.00
44872;BME280;30602;51.060;17.226;2023-06-24T05:26:07;102142.12;;;15.83;100.00
44872;BME280;30602;51.060;17.226;2023-06-24T05:29:50;102148.76;;;15.73;100.00
44872;BME280;30602;51.060;17.226;2023-06-24T05:33:32;102153.89;;;15.72;100.00
44872;BME280;30602;51.060;17.226;2023-06-24T05:37:31;102159.27;;;15.59;100.00
44872;BME280;30602;51.060;17.226;2023-06-24T05:41:33;102164.95;;;15.55;100.00
44872;BME280;30602;51.060;17.226;2023-06-24T05:44:54;102165.24;;;15.57;100.00
44872;BME280;30602;51.060;17.226;2023-06-24T05:48:35;102159.50;;;15.44;100.00
44872;BME280;30602;51.060;17.226;2023-06-24T05:51:58;102167.28;;;15.46;100.00
44872;BME280;30602;51.060;17.226;2023-06-24T05:56:02;102175.55;;;15.31;100.00
44872;BME280;30602;51.060;17.226;2023-06-24T05:59:32;102170.23;;;15.45;100.00
44872;BME280;30602;51.060;17.226;2023-06-24T06:03:13;102174.95;;;15.44;100.00
44872;BME280;30602;51.060;17.226;2023-06-24T06:06:52;102179.64;;;15.50;100.00
44872;BME280;30602;51.060;17.226;2023-06-24T06:10:25;102181.60;;;15.47;100.00
44872;BME280;30602;51.060;17.226;2023-06-24T06:13:45;102174.48;;;15.47;100.00
44872;BME280;30602;51.060;17.226;2023-06-24T06:17:40;102183.23;;;15.57;100.00
44872;BME280;30602;51.060;17.226;2023-06-24T06:21:14;102184.25;;;15.67;100.00
44872;BME280;30602;51.060;17.226;2023-06-24T06:24:55;102183.89;;;15.78;100.00
44872;BME280;30602;51.060;17.226;2023-06-24T06:28:28;102182.80;;;15.84;100.00
44872;BME280;30602;51.060;17.226;2023-06-24T06:32:24;102186.75;;;15.89;100.00
44872;BME280;30602;51.060;17.226;2023-06-24T06:36:39;102184.27;;;15.92;100.00
44872;BME280;30602;51.060;17.226;2023-06-24T06:40:31;102191.10;;;15.95;100.00
44872;BME280;30602;51.060;17.226;2023-06-24T06:43:53;102186.73;;;16.06;100.00
44872;BME280;30602;51.060;17.226;2023-06-24T06:47:31;102186.18;;;15.99;100.00
44872;BME280;30602;51.060;17.226;2023-06-24T06:51:21;102186.21;;;16.12;100.00
44872;BME280;30602;51.060;17.226;2023-06-24T06:54:45;102189.09;;;16.12;100.00
44872;BME280;30602;51.060;17.226;2023-06-24T06:58:27;102189.04;;;16.02;100.00
44872;BME280;30602;51.060;17.226;2023-06-24T07:01:48;102194.98;;;16.14;100.00
44872;BME280;30602;51.060;17.226;2023-06-24T07:05:49;102194.74;;;16.13;100.00
44872;BME280;30602;51.060;17.226;2023-06-24T07:09:30;102196.07;;;16.13;100.00
44872;BME280;30602;51.060;17.226;2023-06-24T07:13:23;102193.77;;;16.15;100.00
44872;BME280;30602;51.060;17.226;2023-06-24T07:16:57;102197.27;;;16.13;100.00
44872;BME280;30602;51.060;17.226;2023-06-24T07:20:41;102197.27;;;16.15;100.00
44872;BME280;30602;51.060;17.226;2023-06-24T07:24:30;102200.73;;;16.20;100.00
44872;BME280;30602;51.060;17.226;2023-06-24T07:28:15;102202.26;;;16.15;100.00
44872;BME280;30602;51.060;17.226;2023-06-24T07:31:49;102198.52;;;16.25;100.00
44872;BME280;30602;51.060;17.226;2023-06-24T07:35:27;102197.84;;;16.35;100.00
44872;BME280;30602;51.060;17.226;2023-06-24T07:38:50;102191.98;;;16.50;100.00
44872;BME280;30602;51.060;17.226;2023-06-24T07:42:31;102196.74;;;16.56;100.00
44872;BME280;30602;51.060;17.226;2023-06-24T07:46:22;102198.90;;;16.54;100.00
44872;BME280;30602;51.060;17.226;2023-06-24T07:50:07;102199.13;;;16.49;100.00
44872;BME280;30602;51.060;17.226;2023-06-24T07:54:02;102200.41;;;16.57;100.00
44872;BME280;30602;51.060;17.226;2023-06-24T07:57:36;102199.87;;;16.59;100.00
44872;BME280;30602;51.060;17.226;2023-06-24T08:01:28;102193.78;;;16.63;100.00
44872;BME280;30602;51.060;17.226;2023-06-24T08:05:06;102195.11;;;16.73;100.00
44872;BME280;30602;51.060;17.226;2023-06-24T08:09:11;102198.19;;;16.87;100.00
44872;BME280;30602;51.060;17.226;2023-06-24T08:12:34;102200.36;;;16.92;100.00
44872;BME280;30602;51.060;17.226;2023-06-24T08:19:47;102209.05;;;17.02;100.00
44872;BME280;30602;51.060;17.226;2023-06-24T08:23:25;102213.98;;;17.03;100.00
44872;BME280;30602;51.060;17.226;2023-06-24T08:26:49;102212.87;;;16.89;100.00
44872;BME280;30602;51.060;17.226;2023-06-24T08:30:34;102212.36;;;16.87;100.00
44872;BME280;30602;51.060;17.226;2023-06-24T08:33:59;102213.83;;;16.85;100.00
44872;BME280;30602;51.060;17.226;2023-06-24T08:37:39;102219.66;;;16.87;100.00
44872;BME280;30602;51.060;17.226;2023-06-24T08:41:24;102223.81;;;17.00;100.00
44872;BME280;30602;51.060;17.226;2023-06-24T08:49:06;102230.25;;;17.04;100.00
44872;BME280;30602;51.060;17.226;2023-06-24T08:53:04;102228.82;;;16.96;100.00
44872;BME280;30602;51.060;17.226;2023-06-24T08:56:33;102230.18;;;17.01;100.00
44872;BME280;30602;51.060;17.226;2023-06-24T09:00:10;102229.59;;;17.01;100.00
44872;BME280;30602;51.060;17.226;2023-06-24T09:03:47;102231.12;;;16.99;100.00
44872;BME280;30602;51.060;17.226;2023-06-24T09:07:41;102232.77;;;17.07;100.00
44872;BME280;30602;51.060;17.226;2023-06-24T09:11:04;102236.73;;;16.90;100.00
44872;BME280;30602;51.060;17.226;2023-06-24T09:15:20;102237.42;;;16.94;100.00
44872;BME280;30602;51.060;17.226;2023-06-24T09:18:51;102241.30;;;16.99;100.00
44872;BME280;30602;51.060;17.226;2023-06-24T09:22:36;102240.17;;;16.99;100.00
44872;BME280;30602;51.060;17.226;2023-06-24T09:26:18;102239.25;;;17.00;100.00
44872;BME280;30602;51.060;17.226;2023-06-24T09:29:36;102236.71;;;17.07;100.00
44872;BME280;30602;51.060;17.226;2023-06-24T09:33:12;102235.60;;;17.15;100.00
44872;BME280;30602;51.060;17.226;2023-06-24T09:36:30;102235.74;;;17.13;100.00
44872;BME280;30602;51.060;17.226;2023-06-24T09:39:52;102231.24;;;17.37;100.00
44872;BME280;30602;51.060;17.226;2023-06-24T09:43:20;102229.95;;;17.49;100.00
44872;BME280;30602;51.060;17.226;2023-06-24T09:47:05;102227.73;;;17.63;100.00
44872;BME280;30602;51.060;17.226;2023-06-24T09:50:28;102225.41;;;17.68;100.00
44872;BME280;30602;51.060;17.226;2023-06-24T09:54:22;102229.28;;;17.86;100.00
44872;BME280;30602;51.060;17.226;2023-06-24T09:57:59;102223.00;;;17.96;96.85
44872;BME280;30602;51.060;17.226;2023-06-24T10:02:16;102221.63;;;18.07;97.41
44872;BME280;30602;51.060;17.226;2023-06-24T10:05:41;102216.14;;;18.07;94.90
44872;BME280;30602;51.060;17.226;2023-06-24T10:09:26;102222.06;;;18.12;96.29
44872;BME280;30602;51.060;17.226;2023-06-24T10:13:00;102217.25;;;18.53;99.56
44872;BME280;30602;51.060;17.226;2023-06-24T10:16:23;102208.12;;;18.79;98.91
44872;BME280;30602;51.060;17.226;2023-06-24T10:19:44;102217.13;;;18.82;95.70
44872;BME280;30602;51.060;17.226;2023-06-24T10:23:53;102219.59;;;18.94;96.10
44872;BME280;30602;51.060;17.226;2023-06-24T10:27:23;102219.29;;;18.97;95.66
44872;BME280;30602;51.060;17.226;2023-06-24T10:31:08;102218.12;;;18.87;95.75
44872;BME280;30602;51.060;17.226;2023-06-24T10:34:54;102215.16;;;18.93;95.75
44872;BME280;30602;51.060;17.226;2023-06-24T10:38:37;102217.63;;;18.76;91.73
44872;BME280;30602;51.060;17.226;2023-06-24T10:42:33;102214.01;;;19.11;93.39
44872;BME280;30602;51.060;17.226;2023-06-24T10:46:16;102215.69;;;19.13;93.39
44872;BME280;30602;51.060;17.226;2023-06-24T10:49:59;102212.35;;;18.94;91.71
44872;BME280;30602;51.060;17.226;2023-06-24T10:53:43;102213.15;;;19.21;94.86
44872;BME280;30602;51.060;17.226;2023-06-24T10:57:29;102213.80;;;19.24;92.41
44872;BME280;30602;51.060;17.226;2023-06-24T11:01:08;102217.35;;;19.06;89.22
44872;BME280;30602;51.060;17.226;2023-06-24T11:04:29;102218.59;;;19.13;91.86
44872;BME280;30602;51.060;17.226;2023-06-24T11:07:53;102217.11;;;19.34;93.97
44872;BME280;30602;51.060;17.226;2023-06-24T11:11:20;102212.88;;;19.37;92.38
44872;BME280;30602;51.060;17.226;2023-06-24T11:15:13;102214.47;;;19.35;88.90
44872;BME280;30602;51.060;17.226;2023-06-24T11:18:50;102210.88;;;19.66;90.89
44872;BME280;30602;51.060;17.226;2023-06-24T11:22:49;102207.47;;;19.51;86.46
44872;BME280;30602;51.060;17.226;2023-06-24T11:26:27;102202.80;;;19.83;88.85
44872;BME280;30602;51.060;17.226;2023-06-24T11:30:10;102194.49;;;19.89;87.87
44872;BME280;30602;51.060;17.226;2023-06-24T11:34:02;102189.83;;;20.08;88.36
44872;BME280;30602;51.060;17.226;2023-06-24T11:37:49;102187.48;;;20.28;87.19
44872;BME280;30602;51.060;17.226;2023-06-24T11:41:14;102185.38;;;20.26;83.86
44872;BME280;30602;51.060;17.226;2023-06-24T11:45:04;102183.16;;;20.33;87.71
44872;BME280;30602;51.060;17.226;2023-06-24T11:48:40;102171.70;;;20.37;87.71
44872;BME280;30602;51.060;17.226;2023-06-24T11:52:11;102168.80;;;20.60;91.70
44872;BME280;30602;51.060;17.226;2023-06-24T11:55:36;102155.31;;;20.88;87.88
44872;BME280;30602;51.060;17.226;2023-06-24T11:59:23;102152.39;;;21.11;87.12
44872;BME280;30602;51.060;17.226;2023-06-24T12:02:50;102157.62;;;21.06;79.97
44872;BME280;30602;51.060;17.226;2023-06-24T12:06:31;102156.30;;;20.88;76.35
44872;BME280;30602;51.060;17.226;2023-06-24T12:10:13;102150.60;;;21.06;80.65
44872;BME280;30602;51.060;17.226;2023-06-24T12:13:46;102140.21;;;21.36;81.71
44872;BME280;30602;51.060;17.226;2023-06-24T12:17:13;102138.27;;;21.58;79.77
44872;BME280;30602;51.060;17.226;2023-06-24T12:20:55;102132.28;;;21.78;80.40
44872;BME280;30602;51.060;17.226;2023-06-24T12:24:37;102124.30;;;22.00;80.21
44872;BME280;30602;51.060;17.226;2023-06-24T12:28:30;102119.40;;;22.02;78.24
44872;BME280;30602;51.060;17.226;2023-06-24T12:32:10;102119.39;;;22.08;75.87
44872;BME280;30602;51.060;17.226;2023-06-24T12:35:51;102120.58;;;22.32;76.11
44872;BME280;30602;51.060;17.226;2023-06-24T12:39:21;102120.75;;;22.37;74.46
44872;BME280;30602;51.060;17.226;2023-06-24T12:46:58;102105.73;;;22.59;72.84
44872;BME280;30602;51.060;17.226;2023-06-24T12:50:36;102099.41;;;22.61;76.31
44872;BME280;30602;51.060;17.226;2023-06-24T12:54:16;102094.60;;;22.78;76.48
44872;BME280;30602;51.060;17.226;2023-06-24T12:58:32;102094.05;;;22.97;75.35
44872;BME280;30602;51.060;17.226;2023-06-24T13:02:01;102095.84;;;23.17;72.18
44872;BME280;30602;51.060;17.226;2023-06-24T13:05:42;102097.17;;;23.44;72.72
44872;BME280;30602;51.060;17.226;2023-06-24T13:09:10;102089.70;;;23.57;72.32
44872;BME280;30602;51.060;17.226;2023-06-24T13:12:48;102084.40;;;23.62;71.61
44872;BME280;30602;51.060;17.226;2023-06-24T13:16:41;102076.80;;;23.56;69.63
44872;BME280;30602;51.060;17.226;2023-06-24T13:20:22;102075.39;;;23.33;71.35
44872;BME280;30602;51.060;17.226;2023-06-24T13:23:52;102068.70;;;23.61;68.95
44872;BME280;30602;51.060;17.226;2023-06-24T13:27:45;102070.48;;;23.60;68.19
44872;BME280;30602;51.060;17.226;2023-06-24T13:44:13;102053.34;;;23.57;66.44
44872;BME280;30602;51.060;17.226;2023-06-24T13:47:43;102057.37;;;24.05;68.53
44872;BME280;30602;51.060;17.226;2023-06-24T13:51:27;102056.70;;;23.86;63.68
44872;BME280;30602;51.060;17.226;2023-06-24T13:55:06;102054.48;;;23.90;64.71
44872;BME280;30602;51.060;17.226;2023-06-24T13:58:28;102049.18;;;24.10;62.84
44872;BME280;30602;51.060;17.226;2023-06-24T14:01:47;102047.94;;;24.29;63.14
44872;BME280;30602;51.060;17.226;2023-06-24T14:23:28;102032.68;;;24.47;57.97
44872;BME280;30602;51.060;17.226;2023-06-24T14:27:07;102033.35;;;24.84;58.33
44872;BME280;30602;51.060;17.226;2023-06-24T14:30:29;102035.61;;;24.75;56.21
44872;BME280;30602;51.060;17.226;2023-06-24T14:34:15;102032.88;;;24.66;61.01
44872;BME280;30602;51.060;17.226;2023-06-24T14:37:36;102041.16;;;24.18;60.47
44872;BME280;30602;51.060;17.226;2023-06-24T14:40:58;102033.72;;;24.20;63.01
44872;BME280;30602;51.060;17.226;2023-06-24T14:45:07;102033.67;;;24.21;61.22
44872;BME280;30602;51.060;17.226;2023-06-24T14:48:44;102033.74;;;23.97;65.06
44872;BME280;30602;51.060;17.226;2023-06-24T14:52:35;102028.97;;;23.70;62.40
44872;BME280;30602;51.060;17.226;2023-06-24T14:56:16;102035.23;;;23.49;65.88
44872;BME280;30602;51.060;17.226;2023-06-24T15:09:00;102024.41;;;23.54;64.97
44872;BME280;30602;51.060;17.226;2023-06-24T15:12:33;102023.95;;;23.58;61.17
44872;BME280;30602;51.060;17.226;2023-06-24T15:16:03;102024.53;;;23.52;62.46
44872;BME280;30602;51.060;17.226;2023-06-24T15:19:31;102025.06;;;23.43;66.69
44872;BME280;30602;51.060;17.226;2023-06-24T15:23:13;102025.17;;;23.13;64.07
44872;BME280;30602;51.060;17.226;2023-06-24T15:26:33;102026.00;;;23.13;68.05
44872;BME280;30602;51.060;17.226;2023-06-24T15:30:23;102021.55;;;23.32;63.98
44872;BME280;30602;51.060;17.226;2023-06-24T15:33:46;102016.69;;;23.57;60.86
44872;BME280;30602;51.060;17.226;2023-06-24T15:37:34;102012.17;;;23.64;60.24
44872;BME280;30602;51.060;17.226;2023-06-24T15:41:15;102005.52;;;23.84;60.15
44872;BME280;30602;51.060;17.226;2023-06-24T15:44:38;102007.09;;;24.07;60.41
44872;BME280;30602;51.060;17.226;2023-06-24T15:48:27;101999.59;;;24.24;59.52
44872;BME280;30602;51.060;17.226;2023-06-24T15:52:08;102008.55;;;24.22;58.96
44872;BME280;30602;51.060;17.226;2023-06-24T15:55:33;102005.02;;;24.27;56.15
44872;BME280;30602;51.060;17.226;2023-06-24T15:58:53;102006.73;;;24.09;56.86
44872;BME280;30602;51.060;17.226;2023-06-24T16:02:44;102004.77;;;23.85;58.15
44872;BME280;30602;51.060;17.226;2023-06-24T16:06:43;102002.37;;;23.66;59.20
44872;BME280;30602;51.060;17.226;2023-06-24T16:10:18;102003.98;;;23.57;61.79
44872;BME280;30602;51.060;17.226;2023-06-24T16:13:37;102005.28;;;23.55;63.57
44872;BME280;30602;51.060;17.226;2023-06-24T16:17:16;102006.89;;;23.51;64.81
44872;BME280;30602;51.060;17.226;2023-06-24T16:21:06;102005.45;;;23.42;61.25
44872;BME280;30602;51.060;17.226;2023-06-24T16:24:46;102004.15;;;23.58;62.94
44872;BME280;30602;51.060;17.226;2023-06-24T16:28:38;102004.84;;;23.67;63.23
44872;BME280;30602;51.060;17.226;2023-06-24T16:32:27;102006.42;;;24.02;61.61
44872;BME280;30602;51.060;17.226;2023-06-24T16:35:59;102005.09;;;24.15;60.43
44872;BME280;30602;51.060;17.226;2023-06-24T16:39:56;101993.48;;;24.35;59.39
44872;BME280;30602;51.060;17.226;2023-06-24T16:43:30;101939.43;;;23.96;61.86
44872;BME280;30602;51.060;17.226;2023-06-24T16:47:19;101996.80;;;24.29;61.61
44872;BME280;30602;51.060;17.226;2023-06-24T16:50:48;101995.95;;;24.20;63.08
44872;BME280;30602;51.060;17.226;2023-06-24T16:54:45;101990.50;;;24.29;62.52
44872;BME280;30602;51.060;17.226;2023-06-24T16:58:09;101990.98;;;24.34;57.45
44872;BME280;30602;51.060;17.226;2023-06-24T17:01:53;101994.66;;;24.25;56.57
44872;BME280;30602;51.060;17.226;2023-06-24T17:05:37;101998.12;;;24.18;57.75
44872;BME280;30602;51.060;17.226;2023-06-24T17:09:28;101997.75;;;24.02;57.84
44872;BME280;30602;51.060;17.226;2023-06-24T17:13:15;101987.47;;;23.90;58.68
44872;BME280;30602;51.060;17.226;2023-06-24T17:16:54;101988.34;;;23.84;58.61
44872;BME280;30602;51.060;17.226;2023-06-24T17:21:06;101984.78;;;23.63;56.81
44872;BME280;30602;51.060;17.226;2023-06-24T17:29:04;101982.06;;;23.47;56.15
44872;BME280;30602;51.060;17.226;2023-06-24T17:32:28;101980.28;;;23.45;59.65
44872;BME280;30602;51.060;17.226;2023-06-24T17:35:47;101980.34;;;23.49;60.39
44872;BME280;30602;51.060;17.226;2023-06-24T17:39:29;101976.66;;;23.32;57.86
44872;BME280;30602;51.060;17.226;2023-06-24T17:43:58;101975.12;;;23.24;60.84
44872;BME280;30602;51.060;17.226;2023-06-24T17:47:41;101973.66;;;23.15;62.43
44872;BME280;30602;51.060;17.226;2023-06-24T17:51:47;101979.34;;;22.95;63.74
44872;BME280;30602;51.060;17.226;2023-06-24T17:55:28;101975.23;;;22.74;68.75
44872;BME280;30602;51.060;17.226;2023-06-24T17:59:03;101975.32;;;22.55;66.52
44872;BME280;30602;51.060;17.226;2023-06-24T18:02:47;101977.95;;;22.34;68.82
44872;BME280;30602;51.060;17.226;2023-06-24T18:06:08;101977.48;;;22.12;69.44
44872;BME280;30602;51.060;17.226;2023-06-24T18:09:30;101980.73;;;22.00;68.67
44872;BME280;30602;51.060;17.226;2023-06-24T18:17:06;101979.51;;;21.83;69.99
44872;BME280;30602;51.060;17.226;2023-06-24T18:20:58;101982.12;;;21.64;70.15
44872;BME280;30602;51.060;17.226;2023-06-24T18:24:42;101978.50;;;21.49;70.79
44872;BME280;30602;51.060;17.226;2023-06-24T18:28:00;101978.76;;;21.40;70.76
44872;BME280;30602;51.060;17.226;2023-06-24T18:32:07;101971.35;;;21.13;69.60
44872;BME280;30602;51.060;17.226;2023-06-24T18:35:51;101984.38;;;21.18;73.24
44872;BME280;30602;51.060;17.226;2023-06-24T18:39:10;101982.53;;;21.03;74.66
44872;BME280;30602;51.060;17.226;2023-06-24T18:42:54;101991.30;;;20.84;72.32
44872;BME280;30602;51.060;17.226;2023-06-24T18:46:36;101991.91;;;20.81;75.42
44872;BME280;30602;51.060;17.226;2023-06-24T18:50:14;101996.76;;;20.65;76.65
44872;BME280;30602;51.060;17.226;2023-06-24T18:54:11;102000.48;;;20.48;74.66
44872;BME280;30602;51.060;17.226;2023-06-24T18:57:55;101999.55;;;20.50;77.58
44872;BME280;30602;51.060;17.226;2023-06-24T19:01:18;102006.16;;;20.27;79.30
44872;BME280;30602;51.060;17.226;2023-06-24T19:05:39;102006.40;;;20.05;79.52
44872;BME280;30602;51.060;17.226;2023-06-24T19:09:19;102009.16;;;19.93;81.04
44872;BME280;30602;51.060;17.226;2023-06-24T19:13:12;102011.02;;;19.78;82.35
44872;BME280;30602;51.060;17.226;2023-06-24T19:16:34;102020.86;;;19.67;83.35
44872;BME280;30602;51.060;17.226;2023-06-24T19:20:58;102021.59;;;19.55;84.27
44872;BME280;30602;51.060;17.226;2023-06-24T19:24:33;102018.88;;;19.38;84.84
44872;BME280;30602;51.060;17.226;2023-06-24T19:28:32;102027.97;;;19.25;85.30
44872;BME280;30602;51.060;17.226;2023-06-24T19:32:13;102029.78;;;19.04;86.09
44872;BME280;30602;51.060;17.226;2023-06-24T19:35:56;102030.02;;;19.12;86.74
44872;BME280;30602;51.060;17.226;2023-06-24T19:39:30;102028.65;;;19.12;86.93
44872;BME280;30602;51.060;17.226;2023-06-24T19:42:58;102028.36;;;19.00;87.31
44872;BME280;30602;51.060;17.226;2023-06-24T19:46:49;102027.66;;;18.89;87.68
44872;BME280;30602;51.060;17.226;2023-06-24T19:50:35;102028.66;;;18.76;88.02
44872;BME280;30602;51.060;17.226;2023-06-24T19:53:59;102030.70;;;18.72;89.55
44872;BME280;30602;51.060;17.226;2023-06-24T19:57:46;102030.17;;;18.72;89.42
44872;BME280;30602;51.060;17.226;2023-06-24T20:01:53;102034.30;;;18.68;89.61
44872;BME280;30602;51.060;17.226;2023-06-24T20:05:38;102034.47;;;18.58;90.00
44872;BME280;30602;51.060;17.226;2023-06-24T20:09:04;102032.38;;;18.60;90.44
44872;BME280;30602;51.060;17.226;2023-06-24T20:12:40;102032.15;;;18.71;90.26
44872;BME280;30602;51.060;17.226;2023-06-24T20:16:21;102030.60;;;18.82;89.31
44872;BME280;30602;51.060;17.226;2023-06-24T20:20:16;102030.66;;;18.82;86.99
44872;BME280;30602;51.060;17.226;2023-06-24T20:23:40;102029.00;;;18.83;84.66
44872;BME280;30602;51.060;17.226;2023-06-24T20:27:18;102025.76;;;18.91;86.65